createdAt,value
2017-08-18T00:01:43.986Z,100606
2017-08-18T00:04:13.842Z,100617
2017-08-18T00:06:43.735Z,100613
2017-08-18T00:09:13.951Z,100609
2017-08-18T00:11:43.824Z,100613
2017-08-18T00:14:13.708Z,100613
2017-08-18T00:16:43.986Z,100604
2017-08-18T00:19:13.872Z,100598
2017-08-18T00:21:43.773Z,100605
2017-08-18T00:24:14.056Z,100595
2017-08-18T00:26:43.915Z,100588
2017-08-18T00:29:13.783Z,100586
2017-08-18T00:31:43.957Z,100599
2017-08-18T00:34:13.817Z,100590
2017-08-18T00:36:43.693Z,100589
2017-08-18T00:39:14.000Z,100594
2017-08-18T00:41:43.862Z,100583
2017-08-18T00:44:13.751Z,100581
2017-08-18T00:46:44.056Z,100589
2017-08-18T00:49:13.914Z,100575
2017-08-18T00:51:43.778Z,100582
2017-08-18T00:54:13.997Z,100591
2017-08-18T00:56:43.857Z,100590
2017-08-18T00:59:13.725Z,100590
2017-08-18T01:01:44.062Z,100587
2017-08-18T01:04:13.921Z,100588
2017-08-18T01:06:59.068Z,100590
2017-08-18T01:09:28.962Z,100580
2017-08-18T01:11:59.171Z,100572
2017-08-18T01:14:29.033Z,100575
2017-08-18T01:16:59.408Z,100575
2017-08-18T01:19:29.287Z,100568
2017-08-18T01:21:59.485Z,100576
2017-08-18T01:24:29.371Z,100569
2017-08-18T01:26:59.694Z,100573
2017-08-18T01:29:29.593Z,100575
2017-08-18T01:31:59.810Z,100570
2017-08-18T01:34:29.653Z,100559
2017-08-18T01:36:59.894Z,100565
2017-08-18T01:39:29.760Z,100561
2017-08-18T01:41:59.662Z,100563
2017-08-18T01:44:29.892Z,100562
2017-08-18T01:46:59.734Z,100557
2017-08-18T01:49:29.623Z,100565
2017-08-18T01:51:59.840Z,100557
2017-08-18T01:54:29.692Z,100552
2017-08-18T01:56:59.624Z,100565
2017-08-18T01:59:29.871Z,100566
2017-08-18T02:01:59.716Z,100561
2017-08-18T02:04:29.586Z,100565
2017-08-18T02:06:59.850Z,100554
2017-08-18T02:09:29.707Z,100554
2017-08-18T02:11:59.974Z,100553
2017-08-18T02:14:29.845Z,100557
2017-08-18T02:16:59.737Z,100557
2017-08-18T02:19:30.014Z,100557
2017-08-18T02:21:59.883Z,100559
2017-08-18T02:24:29.793Z,100543
2017-08-18T02:27:00.067Z,100552
2017-08-18T02:29:29.941Z,100559
2017-08-18T02:31:59.806Z,100557
2017-08-18T02:34:30.193Z,100549
2017-08-18T02:37:00.061Z,100554
2017-08-18T02:39:30.355Z,100554
2017-08-18T02:42:00.255Z,100558
2017-08-18T02:44:30.654Z,100554
2017-08-18T02:47:00.530Z,100568
2017-08-18T02:49:30.831Z,100564
2017-08-18T02:52:00.683Z,100572
2017-08-18T02:54:30.960Z,100566
2017-08-18T02:57:00.838Z,100564
2017-08-18T02:59:30.715Z,100549
2017-08-18T03:02:01.010Z,100557
2017-08-18T03:04:30.990Z,100553
2017-08-18T03:07:01.349Z,100561
2017-08-18T03:09:31.215Z,100564
2017-08-18T03:12:01.514Z,100555
2017-08-18T03:14:31.387Z,100551
2017-08-18T03:17:01.589Z,100551
2017-08-18T03:19:31.459Z,100550
2017-08-18T03:22:01.647Z,100555
2017-08-18T03:24:31.501Z,100559
2017-08-18T03:27:01.862Z,100560
2017-08-18T03:29:31.738Z,100559
2017-08-18T03:32:02.017Z,100556
2017-08-18T03:34:31.865Z,100557
2017-08-18T03:37:02.270Z,100561
2017-08-18T03:39:32.147Z,100559
2017-08-18T03:42:02.423Z,100545
2017-08-18T03:44:32.286Z,100546
2017-08-18T03:47:02.481Z,100544
2017-08-18T03:49:32.355Z,100543
2017-08-18T03:52:02.762Z,100540
2017-08-18T03:54:32.642Z,100543
2017-08-18T03:57:02.902Z,100537
2017-08-18T03:59:32.795Z,100544
2017-08-18T04:02:02.675Z,100539
2017-08-18T04:04:33.013Z,100538
2017-08-18T04:07:02.888Z,100530
2017-08-18T04:09:32.782Z,100532
2017-08-18T04:12:03.039Z,100525
2017-08-18T04:14:32.897Z,100537
2017-08-18T04:17:02.782Z,100537
2017-08-18T04:19:33.056Z,100530
2017-08-18T04:22:02.916Z,100531
2017-08-18T04:24:32.808Z,100527
2017-08-18T04:27:03.116Z,100533
2017-08-18T04:29:33.467Z,100537
2017-08-18T04:32:03.843Z,100527
2017-08-18T04:34:33.729Z,100527
2017-08-18T04:37:03.975Z,100529
2017-08-18T04:39:33.844Z,100529
2017-08-18T04:42:03.735Z,100529
2017-08-18T04:44:34.096Z,100534
2017-08-18T04:47:03.957Z,100547
2017-08-18T04:49:34.263Z,100539
2017-08-18T04:52:04.128Z,100533
2017-08-18T04:54:34.398Z,100535
2017-08-18T04:57:04.249Z,100536
2017-08-18T04:59:34.452Z,100536
2017-08-18T05:02:05.105Z,100535
2017-08-18T05:04:35.377Z,100538
2017-08-18T05:07:05.458Z,100502
2017-08-18T05:09:35.862Z,100526
2017-08-18T05:12:05.723Z,100520
2017-08-18T05:14:35.956Z,100523
2017-08-18T05:17:05.860Z,100516
2017-08-18T05:19:35.864Z,100513
2017-08-18T05:22:06.319Z,100522
2017-08-18T05:24:36.283Z,100521
2017-08-18T05:27:06.502Z,100524
2017-08-18T05:29:36.433Z,100523
2017-08-18T05:32:06.688Z,100530
2017-08-18T05:34:36.550Z,100530
2017-08-18T05:37:06.830Z,100528
2017-08-18T05:39:36.673Z,100530
2017-08-18T05:42:06.962Z,100540
2017-08-18T05:44:36.862Z,100547
2017-08-18T05:47:06.743Z,100539
2017-08-18T05:49:37.003Z,100544
2017-08-18T05:52:06.851Z,100549
2017-08-18T05:54:36.763Z,100554
2017-08-18T05:57:07.015Z,100550
2017-08-18T05:59:37.694Z,100541
2017-08-18T06:02:07.898Z,100540
2017-08-18T06:04:37.977Z,100538
2017-08-18T06:07:08.238Z,100534
2017-08-18T06:09:38.108Z,100531
2017-08-18T06:12:08.416Z,100536
2017-08-18T06:14:38.284Z,100519
2017-08-18T06:17:08.508Z,100534
2017-08-18T06:19:38.401Z,100513
2017-08-18T06:22:08.637Z,100532
2017-08-18T06:24:38.499Z,100539
2017-08-18T06:27:08.808Z,100532
2017-08-18T06:29:38.679Z,100538
2017-08-18T06:32:09.036Z,100529
2017-08-18T06:34:38.898Z,100526
2017-08-18T06:37:08.769Z,100523
2017-08-18T06:39:39.088Z,100521
2017-08-18T06:42:08.969Z,100515
2017-08-18T06:44:39.351Z,100514
2017-08-18T06:47:09.227Z,100522
2017-08-18T06:49:39.472Z,100517
2017-08-18T06:52:09.338Z,100515
2017-08-18T06:54:39.589Z,100519
2017-08-18T06:57:09.484Z,100517
2017-08-18T06:59:39.932Z,100505
2017-08-18T07:02:09.798Z,100508
2017-08-18T07:04:39.990Z,100509
2017-08-18T07:07:09.943Z,100516
2017-08-18T07:09:40.180Z,100519
2017-08-18T07:12:10.162Z,100519
2017-08-18T07:14:40.318Z,100514
2017-08-18T07:17:10.279Z,100504
2017-08-18T07:19:40.562Z,100508
2017-08-18T07:22:10.465Z,100513
2017-08-18T07:24:40.816Z,100510
2017-08-18T07:27:10.683Z,100511
2017-08-18T07:29:40.964Z,100504
2017-08-18T07:32:10.878Z,100503
2017-08-18T07:34:40.743Z,100513
2017-08-18T07:37:10.943Z,100514
2017-08-18T07:39:40.826Z,100506
2017-08-18T07:42:10.731Z,100501
2017-08-18T07:44:41.035Z,100505
2017-08-18T07:47:10.939Z,100505
2017-08-18T07:49:41.199Z,100503
2017-08-18T07:52:11.079Z,100511
2017-08-18T07:54:41.362Z,100504
2017-08-18T07:57:11.272Z,100504
2017-08-18T08:00:10.630Z,100505
2017-08-18T08:02:40.510Z,100506
2017-08-18T08:05:10.737Z,100502
2017-08-18T08:07:40.573Z,100503
2017-08-18T08:10:10.899Z,100505
2017-08-18T08:12:40.764Z,100501
2017-08-18T08:15:10.918Z,100510
2017-08-18T08:17:40.973Z,100509
2017-08-18T08:20:11.353Z,100501
2017-08-18T08:22:41.181Z,100499
2017-08-18T08:25:11.388Z,100496
2017-08-18T08:27:41.244Z,100491
2017-08-18T08:30:11.518Z,100484
2017-08-18T08:32:41.370Z,100475
2017-08-18T08:35:11.584Z,100469
2017-08-18T08:37:41.443Z,100463
2017-08-18T08:40:11.682Z,100459
2017-08-18T08:42:41.551Z,100465
2017-08-18T08:45:11.932Z,100464
2017-08-18T08:47:41.894Z,100476
2017-08-18T08:50:12.042Z,100462
2017-08-18T08:52:41.900Z,100458
2017-08-18T08:55:11.805Z,100474
2017-08-18T08:57:42.073Z,100469
2017-08-18T09:00:11.951Z,100472
2017-08-18T09:02:42.174Z,100470
2017-08-18T09:05:12.025Z,100476
2017-08-18T09:07:42.288Z,100479
2017-08-18T09:10:12.148Z,100469
2017-08-18T09:12:42.398Z,100473
2017-08-18T09:15:12.259Z,100470
2017-08-18T09:17:42.456Z,100465
2017-08-18T09:20:12.322Z,100469
2017-08-18T09:22:42.565Z,100475
2017-08-18T09:25:12.438Z,100470
2017-08-18T09:27:42.713Z,100464
2017-08-18T09:30:12.590Z,100466
2017-08-18T09:32:42.965Z,100466
2017-08-18T09:35:12.859Z,100454
2017-08-18T09:37:42.744Z,100445
2017-08-18T09:40:12.980Z,100446
2017-08-18T09:42:42.993Z,100447
2017-08-18T09:45:13.387Z,100455
2017-08-18T09:47:43.245Z,100460
2017-08-18T09:50:25.361Z,100467
2017-08-18T09:56:14.348Z,100457
2017-08-18T09:58:55.254Z,100425
2017-08-18T10:01:25.446Z,100441
2017-08-18T10:03:55.347Z,100435
2017-08-18T10:06:25.678Z,100433
2017-08-18T10:08:55.639Z,100431
2017-08-18T10:11:26.003Z,100417
2017-08-18T10:13:55.892Z,100426
2017-08-18T10:16:25.822Z,100429
2017-08-18T10:18:56.072Z,100376
2017-08-18T10:21:25.937Z,100425
2017-08-18T10:23:56.182Z,100432
2017-08-18T10:26:26.047Z,100422
2017-08-18T10:28:56.365Z,100419
2017-08-18T10:31:26.297Z,100428
2017-08-18T10:33:56.612Z,100421
2017-08-18T10:36:26.636Z,100416
2017-08-18T10:38:56.865Z,100407
2017-08-18T10:41:27.024Z,100418
2017-08-18T10:43:57.350Z,100397
2017-08-18T10:46:27.322Z,100405
2017-08-18T10:48:57.584Z,100404
2017-08-18T10:51:27.530Z,100409
2017-08-18T10:53:57.937Z,100414
2017-08-18T10:56:27.905Z,100408
2017-08-18T10:58:58.137Z,100421
2017-08-18T11:01:28.043Z,100411
2017-08-18T11:03:58.260Z,100406
2017-08-18T11:06:28.147Z,100411
2017-08-18T11:08:58.430Z,100422
2017-08-18T11:11:28.312Z,100433
2017-08-18T11:13:58.560Z,100440
2017-08-18T11:16:28.750Z,100438
2017-08-18T11:18:58.886Z,100444
2017-08-18T11:21:28.790Z,100443
2017-08-18T11:23:58.661Z,100434
2017-08-18T11:26:28.720Z,100442
2017-08-18T11:28:58.578Z,100440
2017-08-18T11:31:28.607Z,100435
2017-08-18T11:33:59.425Z,100428
2017-08-18T11:36:29.466Z,100422
2017-08-18T11:38:59.332Z,100421
2017-08-18T11:41:29.371Z,100424
2017-08-18T11:43:59.263Z,100429
2017-08-18T11:46:29.447Z,100428
2017-08-18T11:48:59.339Z,100424
2017-08-18T11:51:29.620Z,100424
2017-08-18T11:53:59.494Z,100426
2017-08-18T11:56:29.656Z,100419
2017-08-18T11:58:59.629Z,100415
2017-08-18T12:01:29.846Z,100425
2017-08-18T12:03:59.707Z,100422
2017-08-18T12:06:30.769Z,100409
2017-08-18T12:09:00.631Z,100414
2017-08-18T12:11:30.887Z,100418
2017-08-18T12:14:01.040Z,100418
2017-08-18T12:16:31.410Z,100408
2017-08-18T12:19:01.299Z,100411
2017-08-18T12:21:31.541Z,100396
2017-08-18T12:24:01.381Z,100382
2017-08-18T12:26:31.650Z,100385
2017-08-18T12:29:01.530Z,100378
2017-08-18T12:31:31.806Z,100369
2017-08-18T12:34:01.655Z,100367
2017-08-18T12:36:31.945Z,100368
2017-08-18T12:39:01.811Z,100367
2017-08-18T12:41:31.681Z,100366
2017-08-18T12:44:02.009Z,100362
2017-08-18T12:46:31.867Z,100358
2017-08-18T12:49:01.752Z,100366
2017-08-18T12:51:32.039Z,100378
2017-08-18T12:54:01.905Z,100377
2017-08-18T12:56:32.198Z,100375
2017-08-18T12:59:02.084Z,100372
2017-08-18T13:01:32.301Z,100377
2017-08-18T13:04:02.205Z,100377
2017-08-18T13:06:32.436Z,100379
2017-08-18T13:09:02.424Z,100371
2017-08-18T13:11:32.592Z,100368
2017-08-18T13:14:02.501Z,100358
2017-08-18T13:16:32.870Z,100355
2017-08-18T13:19:02.742Z,100348
2017-08-18T13:21:33.064Z,100337
2017-08-18T13:24:03.102Z,100326
2017-08-18T13:26:33.419Z,100332
2017-08-18T13:29:03.319Z,100332
2017-08-18T13:31:33.706Z,100326
2017-08-18T13:34:03.671Z,100338
2017-08-18T13:36:33.942Z,100335
2017-08-18T13:39:03.783Z,100330
2017-08-18T13:41:33.686Z,100349
2017-08-18T13:44:04.046Z,100346
2017-08-18T13:46:33.922Z,100353
2017-08-18T13:49:03.886Z,100357
2017-08-18T13:51:34.172Z,100353
2017-08-18T13:54:04.032Z,100359
2017-08-18T13:56:34.435Z,100356
2017-08-18T13:59:04.310Z,100353
2017-08-18T14:01:34.567Z,100356
2017-08-18T14:04:04.443Z,100352
2017-08-18T14:06:34.590Z,100351
2017-08-18T14:09:04.447Z,100342
2017-08-18T14:11:34.694Z,100337
2017-08-18T14:14:04.633Z,100343
2017-08-18T14:16:34.979Z,100326
2017-08-18T14:19:04.847Z,100317
2017-08-18T14:21:34.789Z,100304
2017-08-18T14:24:04.984Z,100310
2017-08-18T14:26:40.257Z,100300
2017-08-18T14:29:10.417Z,100306
2017-08-18T14:31:40.280Z,100305
2017-08-18T14:34:10.590Z,100306
2017-08-18T14:36:40.464Z,100299
2017-08-18T14:39:10.711Z,100293
2017-08-18T14:41:40.540Z,100288
2017-08-18T14:44:10.843Z,100298
2017-08-18T14:46:40.741Z,100296
2017-08-18T14:49:11.016Z,100291
2017-08-18T14:51:40.900Z,100287
2017-08-18T14:54:11.236Z,100280
2017-08-18T14:56:41.183Z,100286
2017-08-18T14:59:11.368Z,100281
2017-08-18T15:01:41.226Z,100277
2017-08-18T15:04:11.505Z,100278
2017-08-18T15:06:41.349Z,100277
2017-08-18T15:09:11.703Z,100272
2017-08-18T15:11:41.578Z,100271
2017-08-18T15:14:11.795Z,100261
2017-08-18T15:16:41.666Z,100265
2017-08-18T15:19:11.943Z,100268
2017-08-18T15:21:41.797Z,100260
2017-08-18T15:24:12.042Z,100261
2017-08-18T15:26:41.963Z,100269
2017-08-18T15:29:12.207Z,100258
2017-08-18T15:31:42.075Z,100265
2017-08-18T15:34:12.234Z,100254
2017-08-18T15:36:42.142Z,100255
2017-08-18T15:39:12.438Z,100247
2017-08-18T15:41:42.329Z,100242
2017-08-18T15:44:12.573Z,100245
2017-08-18T15:46:42.438Z,100247
2017-08-18T15:49:12.820Z,100242
2017-08-18T15:51:42.694Z,100244
2017-08-18T15:54:13.059Z,100241
2017-08-18T15:56:42.910Z,100235
2017-08-18T15:59:13.201Z,100233
2017-08-18T16:01:43.056Z,100241
2017-08-18T16:04:13.342Z,100232
2017-08-18T16:06:43.216Z,100230
2017-08-18T16:09:13.467Z,100234
2017-08-18T16:11:43.364Z,100220
2017-08-18T16:14:13.619Z,100227
2017-08-18T16:16:43.454Z,100227
2017-08-18T16:19:13.858Z,100222
2017-08-18T16:21:43.721Z,100229
2017-08-18T16:24:13.990Z,100219
2017-08-18T16:26:43.855Z,100231
2017-08-18T16:29:13.755Z,100234
2017-08-18T16:31:44.024Z,100232
2017-08-18T16:34:13.899Z,100219
2017-08-18T16:36:43.952Z,100226
2017-08-18T16:39:14.213Z,100218
2017-08-18T16:41:44.064Z,100215
2017-08-18T16:44:14.225Z,100211
2017-08-18T16:46:44.082Z,100208
2017-08-18T16:49:14.316Z,100210
2017-08-18T16:51:44.316Z,100212
2017-08-18T16:54:14.633Z,100209
2017-08-18T16:56:44.533Z,100214
2017-08-18T16:59:14.904Z,100210
2017-08-18T17:01:44.785Z,100219
2017-08-18T17:04:15.229Z,100219
2017-08-18T17:06:45.084Z,100229
2017-08-18T17:09:15.384Z,100228
2017-08-18T17:11:45.260Z,100239
2017-08-18T17:14:15.580Z,100241
2017-08-18T17:16:45.488Z,100232
2017-08-18T17:19:15.955Z,100237
2017-08-18T17:21:45.887Z,100244
2017-08-18T17:24:16.048Z,100246
2017-08-18T17:26:46.160Z,100244
2017-08-18T17:29:16.596Z,100237
2017-08-18T17:31:46.602Z,100233
2017-08-18T17:34:17.717Z,100238
2017-08-18T17:36:48.984Z,100245
2017-08-18T17:39:19.672Z,100133
2017-08-18T17:41:49.754Z,100244
2017-08-18T17:44:19.943Z,100245
2017-08-18T17:46:49.952Z,100250
2017-08-18T17:49:20.179Z,100251
2017-08-18T17:51:50.684Z,100248
2017-08-18T17:54:20.834Z,100242
2017-08-18T17:56:50.938Z,100243
2017-08-18T17:59:21.142Z,100245
2017-08-18T18:01:51.010Z,100245
2017-08-18T18:04:21.266Z,100239
2017-08-18T18:06:51.185Z,100241
2017-08-18T18:09:21.453Z,100254
2017-08-18T18:11:51.367Z,100242
2017-08-18T18:14:21.601Z,100243
2017-08-18T18:16:51.495Z,100244
2017-08-18T18:19:21.888Z,100245
2017-08-18T18:21:51.810Z,100235
2017-08-18T18:24:22.132Z,100242
2017-08-18T18:26:52.033Z,100243
2017-08-18T18:29:22.294Z,100237
2017-08-18T18:31:52.183Z,100244
2017-08-18T18:34:22.494Z,100242
2017-08-18T18:36:52.354Z,100234
2017-08-18T18:39:22.515Z,100234
2017-08-18T18:41:52.403Z,100234
2017-08-18T18:44:22.669Z,100235
2017-08-18T18:46:52.598Z,100238
2017-08-18T18:49:22.871Z,100237
2017-08-18T18:51:52.778Z,100234
2017-08-18T18:54:22.705Z,100238
2017-08-18T18:56:53.046Z,100241
2017-08-18T18:59:22.956Z,100252
2017-08-18T19:01:53.287Z,100240
2017-08-18T19:04:23.201Z,100250
2017-08-18T19:06:53.396Z,100250
2017-08-18T19:09:23.283Z,100250
2017-08-18T19:11:53.516Z,100261
2017-08-18T19:14:23.437Z,100276
2017-08-18T19:16:53.686Z,100262
2017-08-18T19:19:23.546Z,100269
2017-08-18T19:21:53.822Z,100259
2017-08-18T19:24:23.786Z,100245
2017-08-18T19:26:54.017Z,100239
2017-08-18T19:29:23.936Z,100232
2017-08-18T19:31:53.867Z,100235
2017-08-18T19:34:24.236Z,100224
2017-08-18T19:36:54.098Z,100219
2017-08-18T19:39:24.339Z,100222
2017-08-18T19:41:54.231Z,100208
2017-08-18T19:44:24.600Z,100207
2017-08-18T19:46:54.600Z,100183
2017-08-18T19:49:24.819Z,100197
2017-08-18T19:51:54.683Z,100197
2017-08-18T19:54:25.004Z,100194
2017-08-18T19:56:55.137Z,100157
2017-08-18T19:59:25.602Z,100189
2017-08-18T20:01:55.499Z,100177
2017-08-18T20:04:25.772Z,100176
2017-08-18T20:06:55.728Z,100187
2017-08-18T20:09:26.061Z,100193
2017-08-18T20:11:55.942Z,100215
2017-08-18T20:14:25.821Z,100223
2017-08-18T20:16:56.106Z,100228
2017-08-18T20:19:25.930Z,100228
2017-08-18T20:21:55.824Z,100225
2017-08-18T20:24:26.070Z,100215
2017-08-18T20:26:55.973Z,100234
2017-08-18T20:29:26.206Z,100228
2017-08-18T20:31:56.197Z,100215
2017-08-18T20:34:26.445Z,100215
2017-08-18T20:36:56.364Z,100217
2017-08-18T20:39:26.535Z,100220
2017-08-18T20:41:56.453Z,100226
2017-08-18T20:44:26.825Z,100238
2017-08-18T20:46:56.719Z,100239
2017-08-18T20:49:26.974Z,100227
2017-08-18T20:51:56.852Z,100242
2017-08-18T20:54:26.757Z,100259
2017-08-18T20:56:56.996Z,100259
2017-08-18T20:59:27.091Z,100256
2017-08-18T21:01:57.342Z,100260
2017-08-18T21:04:27.406Z,100262
2017-08-18T21:06:57.659Z,100268
2017-08-18T21:09:27.591Z,100264
2017-08-18T21:11:57.805Z,100273
2017-08-18T21:14:27.763Z,100267
2017-08-18T21:16:58.155Z,100266
2017-08-18T21:19:28.121Z,100261
2017-08-18T21:21:58.487Z,100258
2017-08-18T21:24:28.395Z,100261
2017-08-18T21:26:58.630Z,100265
2017-08-18T21:29:28.475Z,100258
2017-08-18T21:31:58.706Z,100257
2017-08-18T21:34:28.596Z,100256
2017-08-18T21:36:58.783Z,100261
2017-08-18T21:39:28.658Z,100246
2017-08-18T21:41:58.982Z,100254
2017-08-18T21:44:28.865Z,100252
2017-08-18T21:46:58.787Z,100259
2017-08-18T21:49:29.134Z,100255
2017-08-18T21:51:59.011Z,100252
2017-08-18T21:54:29.209Z,100259
2017-08-18T21:56:59.134Z,100264
2017-08-18T21:59:29.347Z,100257
2017-08-18T22:01:59.225Z,100253
2017-08-18T22:04:29.478Z,100257
2017-08-18T22:06:59.368Z,100249
2017-08-18T22:09:29.600Z,100236
2017-08-18T22:11:59.706Z,100246
2017-08-18T22:14:29.853Z,100240
2017-08-18T22:16:59.772Z,100234
2017-08-18T22:19:29.673Z,100254
2017-08-18T22:21:59.914Z,100253
2017-08-18T22:24:29.804Z,100266
2017-08-18T22:26:59.680Z,100262
2017-08-18T22:29:29.853Z,100261
2017-08-18T22:31:59.868Z,100257
2017-08-18T22:34:29.767Z,100254
2017-08-18T22:37:00.048Z,100261
2017-08-18T22:39:29.945Z,100270
2017-08-18T22:42:00.134Z,100273
2017-08-18T22:44:30.009Z,100273
2017-08-18T22:47:00.196Z,100288
2017-08-18T22:49:30.082Z,100282
2017-08-18T22:52:00.256Z,100280
2017-08-18T22:54:30.150Z,100298
2017-08-18T22:57:00.337Z,100291
2017-08-18T22:59:30.240Z,100294
2017-08-18T23:02:00.454Z,100288
2017-08-18T23:04:30.399Z,100296
2017-08-18T23:07:00.621Z,100287
2017-08-18T23:09:30.495Z,100276
2017-08-18T23:12:00.783Z,100276
2017-08-18T23:14:30.635Z,100282
2017-08-18T23:17:00.827Z,100279
2017-08-18T23:19:30.732Z,100287
2017-08-18T23:22:00.628Z,100286
2017-08-18T23:24:30.822Z,100296
2017-08-18T23:27:00.742Z,100282
2017-08-18T23:29:30.930Z,100266
2017-08-18T23:32:00.808Z,100268
2017-08-18T23:34:30.706Z,100262
2017-08-18T23:37:00.880Z,100253
2017-08-18T23:39:30.749Z,100256
2017-08-18T23:42:00.629Z,100254
2017-08-18T23:44:30.839Z,100249
2017-08-18T23:47:00.703Z,100252
2017-08-18T23:49:31.021Z,100248
2017-08-18T23:52:00.986Z,100252
2017-08-18T23:54:31.164Z,100245
2017-08-18T23:57:01.053Z,100237
2017-08-18T23:59:31.255Z,100245
